Time;durP1;ratioP1;P1;durP2;ratioP2;P2;SDS_P1;SDS_P2;PMS_P1;PMS_P2;Temp;Humidity;BMP_temperature;BMP_pressure;BME280_temperature;BME280_humidity;BME280_pressure;Samples;Min_cycle;Max_cycle;Signal;HPM_P1;HPM_P2
2021/07/24 00:02:06;;;;;;;23.50;11.73;;;;;;;17.60;59.52;99020.56;125431;1096;103100;-77
2021/07/24 00:04:36;;;;;;;24.50;13.33;;;;;;;17.58;59.10;99014.50;125449;1096;103119;-77
2021/07/24 00:07:05;;;;;;;26.83;12.80;;;;;;;17.55;59.19;99009.44;125418;1096;103081;-77
2021/07/24 00:09:33;;;;;;;25.33;12.80;;;;;;;17.51;59.25;99003.54;125438;1096;102942;-76
2021/07/24 00:12:02;;;;;;;26.27;13.90;;;;;;;17.48;59.48;99003.03;125468;1096;103001;-77
2021/07/24 00:14:30;;;;;;;30.13;14.43;;;;;;;17.47;59.58;99001.34;125394;1095;103040;-79
2021/07/24 00:16:58;;;;;;;24.70;13.33;;;;;;;17.47;59.78;99001.34;125408;1096;102946;-77
2021/07/24 00:19:27;;;;;;;25.50;13.23;;;;;;;17.43;59.52;99011.55;125472;1095;103000;-76
2021/07/24 00:21:55;;;;;;;24.93;13.57;;;;;;;17.40;59.50;98993.90;125473;1096;103036;-79
2021/07/24 00:24:24;;;;;;;26.13;13.93;;;;;;;17.38;59.66;99003.97;125415;1095;103111;-79
2021/07/24 00:26:52;;;;;;;24.10;12.67;;;;;;;17.37;60.17;98998.73;125441;1096;103116;-79
2021/07/24 00:29:20;;;;;;;23.80;11.97;;;;;;;17.35;60.03;98995.35;125533;1095;103125;-79
2021/07/24 00:31:48;;;;;;;25.50;12.75;;;;;;;17.32;59.87;99001.90;125582;1096;103042;-78
2021/07/24 00:34:19;;;;;;;21.60;11.13;;;;;;;17.28;60.16;98992.45;125726;1096;103060;-79
2021/07/24 00:36:51;;;;;;;25.73;12.57;;;;;;;17.17;60.33;98998.08;125610;1096;102912;-79
2021/07/24 00:39:19;;;;;;;24.00;12.70;;;;;;;17.09;60.03;98999.73;125372;1096;103067;-80
2021/07/24 00:42:13;;;;;;;23.70;12.43;;;;;;;17.09;60.22;98998.86;125394;1096;103100;-79
2021/07/24 00:44:45;;;;;;;27.53;12.63;;;;;;;17.09;60.24;98988.12;125434;1095;103560;-78
2021/07/24 00:47:29;;;;;;;24.60;12.03;;;;;;;17.10;60.58;98987.98;125453;1096;103074;-79
2021/07/24 00:50:01;;;;;;;23.90;11.77;;;;;;;17.10;60.60;98987.98;125422;1096;103187;-78
2021/07/24 00:52:31;;;;;;;23.10;12.43;;;;;;;17.09;60.79;98986.29;125426;1096;103122;-79
2021/07/24 00:55:00;;;;;;;23.90;12.33;;;;;;;17.09;60.67;98988.98;125480;1094;102943;-79
2021/07/24 00:57:28;;;;;;;25.83;12.50;;;;;;;17.09;60.62;98980.91;125466;1095;103132;-78
2021/07/24 00:59:59;;;;;;;26.20;13.40;;;;;;;17.08;60.97;98989.12;125459;1097;103001;-78
2021/07/24 01:02:27;;;;;;;31.65;11.75;;;;;;;17.07;60.79;98985.60;125400;1095;103040;-76
2021/07/24 01:05:01;;;;;;;25.67;12.07;;;;;;;17.06;60.83;98985.73;125308;1096;103063;-76
2021/07/24 01:07:40;;;;;;;23.77;11.03;;;;;;;17.05;61.16;98975.98;125375;1096;103083;-76
2021/07/24 01:10:11;;;;;;;22.50;11.17;;;;;;;17.03;61.07;98986.91;125426;1096;102919;-75
2021/07/24 01:12:52;;;;;;;23.60;11.73;;;;;;;16.96;61.04;98988.52;125453;1096;103036;-76
2021/07/24 01:15:25;;;;;;;23.87;11.57;;;;;;;16.95;61.26;98986.80;125400;1097;103374;-76
2021/07/24 01:17:56;;;;;;;20.98;9.88;;;;;;;16.90;61.28;98981.91;125428;1096;102945;-77
2021/07/24 01:20:27;;;;;;;24.23;11.10;;;;;;;16.78;61.37;98977.75;125481;1096;103016;-76
2021/07/24 01:22:58;;;;;;;23.57;10.60;;;;;;;16.66;61.51;98980.66;125452;1096;103003;-78
2021/07/24 01:25:26;;;;;;;21.47;10.37;;;;;;;16.67;61.63;98984.20;125486;1096;102957;-78
2021/07/24 01:27:55;;;;;;;20.13;9.77;;;;;;;16.69;61.76;98976.84;125395;1096;103080;-79
2021/07/24 01:30:24;;;;;;;23.07;10.97;;;;;;;16.71;61.79;98982.88;125399;1096;103004;-76
2021/07/24 01:32:52;;;;;;;21.73;10.43;;;;;;;16.74;61.85;98979.05;125416;1095;103064;-77
2021/07/24 01:35:20;;;;;;;19.90;10.37;;;;;;;16.72;61.77;98981.88;125437;1097;102978;-77
2021/07/24 01:37:49;;;;;;;21.63;9.67;;;;;;;16.73;62.09;98978.20;125391;1095;102972;-76
2021/07/24 01:40:18;;;;;;;24.25;10.60;;;;;;;16.75;61.93;98975.38;126027;1097;103074;-77
2021/07/24 01:42:46;;;;;;;20.55;9.70;;;;;;;16.76;61.91;98975.20;125401;1097;102924;-76
2021/07/24 01:45:14;;;;;;;22.33;10.17;;;;;;;16.78;62.33;98967.84;125442;1096;102943;-78
2021/07/24 01:47:43;;;;;;;20.53;10.20;;;;;;;16.79;62.13;98974.90;125445;1096;102945;-80
2021/07/24 01:53:00;;;;;;;21.17;9.53;;;;;;;16.73;62.41;98972.83;125588;1096;103196;-80
2021/07/24 01:55:47;;;;;;;20.57;9.60;;;;;;;16.63;62.40;98966.71;125594;1096;102948;-78
2021/07/24 01:58:29;;;;;;;23.10;10.07;;;;;;;16.58;62.22;98971.69;125501;1096;102923;-77
2021/07/24 02:01:01;;;;;;;22.00;10.10;;;;;;;16.55;62.43;98967.45;125417;1096;102942;-78
2021/07/24 02:03:36;;;;;;;19.83;9.23;;;;;;;16.51;62.63;98966.93;125473;1095;103041;-78
2021/07/24 02:06:05;;;;;;;22.73;9.53;;;;;;;16.49;62.58;98973.46;125436;1096;102919;-79
2021/07/24 02:08:35;;;;;;;21.03;10.03;;;;;;;16.43;62.68;98961.47;125421;1096;103001;-79
2021/07/24 02:11:06;;;;;;;21.53;10.07;;;;;;;16.39;62.55;98959.25;125491;1097;103009;-78
2021/07/24 02:13:36;;;;;;;21.67;10.13;;;;;;;16.33;62.80;98952.63;125465;1096;103019;-77
2021/07/24 02:16:07;;;;;;;21.40;10.57;;;;;;;16.26;63.01;98954.26;125472;1096;102916;-77
2021/07/24 02:18:38;;;;;;;20.27;9.13;;;;;;;16.20;63.12;98953.00;125437;1096;103035;-77
2021/07/24 02:21:09;;;;;;;22.93;10.53;;;;;;;16.11;63.18;98954.76;125502;1096;102921;-78
2021/07/24 02:23:37;;;;;;;21.47;10.30;;;;;;;15.99;63.26;98955.95;125458;1096;102919;-78
2021/07/24 02:26:08;;;;;;;21.10;9.33;;;;;;;15.88;63.34;98954.31;125458;1096;103013;-77
2021/07/24 02:28:40;;;;;;;21.57;9.83;;;;;;;15.82;63.54;98960.23;125469;1095;102920;-77
2021/07/24 02:31:10;;;;;;;21.43;9.60;;;;;;;15.74;63.56;98951.09;125525;1096;103032;-78
2021/07/24 02:33:38;;;;;;;20.83;10.00;;;;;;;15.72;63.78;98953.08;125589;1096;103017;-78
2021/07/24 02:36:07;;;;;;;22.53;10.73;;;;;;;15.69;63.80;98960.58;125571;1096;102986;-77
2021/07/24 02:38:35;;;;;;;19.67;8.83;;;;;;;15.66;64.14;98955.51;125586;1096;103001;-77
2021/07/24 02:41:04;;;;;;;22.27;11.23;;;;;;;15.62;64.12;98954.97;125586;1096;103044;-77
2021/07/24 02:43:34;;;;;;;22.53;9.63;;;;;;;15.59;64.16;98949.90;125550;1096;103028;-76
2021/07/24 02:46:02;;;;;;;21.97;11.07;;;;;;;15.58;64.21;98950.89;125458;1096;103141;-76
2021/07/24 02:48:32;;;;;;;21.17;11.67;;;;;;;15.57;64.39;98955.39;125521;1097;103157;-78
2021/07/24 02:51:00;;;;;;;21.47;10.60;;;;;;;15.57;64.53;98949.20;125503;1096;103029;-76
2021/07/24 02:53:28;;;;;;;20.23;9.60;;;;;;;15.54;64.88;98949.49;125433;1096;102913;-77
2021/07/24 02:55:57;;;;;;;20.47;8.90;;;;;;;15.50;64.89;98948.92;126148;1096;103258;-77
2021/07/24 02:58:25;;;;;;;21.43;10.10;;;;;;;15.48;65.08;98945.58;125400;1097;103138;-75
2021/07/24 03:00:53;;;;;;;21.17;10.60;;;;;;;15.45;64.76;98954.73;125400;1096;103180;-75
2021/07/24 03:03:25;;;;;;;23.17;10.83;;;;;;;15.45;64.91;98949.38;125412;1096;103058;-77
2021/07/24 03:05:55;;;;;;;22.23;10.07;;;;;;;15.48;65.07;98956.30;125427;1096;103026;-77
2021/07/24 03:08:24;;;;;;;19.77;9.63;;;;;;;15.48;65.16;98957.13;125455;1096;102943;-76
2021/07/24 03:10:52;;;;;;;19.50;9.73;;;;;;;15.50;65.33;98951.60;125477;1095;102954;-77
2021/07/24 03:13:21;;;;;;;19.47;9.63;;;;;;;15.51;65.34;98950.61;125538;1096;103029;-76
2021/07/24 03:15:49;;;;;;;21.63;10.77;;;;;;;15.48;65.11;98951.77;125446;1096;103071;-76
2021/07/24 03:18:17;;;;;;;22.33;10.20;;;;;;;15.44;65.45;98947.69;125393;1095;103479;-75
2021/07/24 03:20:46;;;;;;;20.80;9.83;;;;;;;15.41;65.67;98947.97;125435;1096;103071;-77
2021/07/24 03:23:14;;;;;;;23.17;9.13;;;;;;;15.37;65.66;98949.25;125454;1096;103044;-78
2021/07/24 03:25:43;;;;;;;19.63;9.17;;;;;;;15.36;65.92;98946.73;125479;1096;102950;-78
2021/07/24 03:28:11;;;;;;;19.70;9.33;;;;;;;15.34;65.73;98949.54;125490;1095;103007;-79
2021/07/24 03:30:39;;;;;;;19.77;9.00;;;;;;;15.35;65.81;98955.76;125516;1096;102943;-77
2021/07/24 03:33:08;;;;;;;19.43;9.47;;;;;;;15.31;65.91;98949.83;125502;1095;103137;-78
2021/07/24 03:35:36;;;;;;;20.43;9.47;;;;;;;15.26;66.06;98946.77;125436;1096;103025;-79
2021/07/24 03:38:07;;;;;;;18.40;8.25;;;;;;;15.23;66.01;98950.56;125453;1096;103005;-78
2021/07/24 03:40:39;;;;;;;20.37;9.23;;;;;;;15.18;66.01;98942.97;125437;1097;103454;-78
2021/07/24 03:43:07;;;;;;;19.07;8.80;;;;;;;15.15;66.13;98951.30;125508;1096;103167;-79
2021/07/24 03:45:35;;;;;;;20.93;9.50;;;;;;;15.18;66.25;98958.18;125426;1095;103013;-79
2021/07/24 03:48:08;;;;;;;19.87;8.83;;;;;;;15.21;66.27;98951.70;125394;1096;103015;-78
2021/07/24 03:50:36;;;;;;;18.77;9.17;;;;;;;15.24;66.52;98957.61;125441;1096;103007;-78
2021/07/24 03:53:05;;;;;;;18.90;8.60;;;;;;;15.29;66.33;98960.70;125446;1096;102945;-77
2021/07/24 03:55:35;;;;;;;23.07;10.10;;;;;;;15.34;66.44;98957.58;125444;1096;103075;-77
2021/07/24 03:58:05;;;;;;;19.60;9.27;;;;;;;15.35;66.52;98953.08;125435;1096;103031;-77
2021/07/24 04:00:46;;;;;;;19.20;8.97;;;;;;;15.38;66.70;98956.30;125427;1095;103002;-77
2021/07/24 04:03:18;;;;;;;19.37;8.47;;;;;;;15.38;66.79;98958.15;125407;1096;103062;-77
2021/07/24 04:05:53;;;;;;;19.57;9.03;;;;;;;15.37;66.86;98953.78;125429;1097;103022;-78
2021/07/24 04:08:25;;;;;;;20.90;10.40;;;;;;;15.38;67.09;98956.30;125474;1095;102920;-78
2021/07/24 04:10:55;;;;;;;;;;;;;;;15.40;67.76;98958.85;125579;1095;102942;-76
2021/07/24 04:13:23;;;;;;;19.17;8.43;;;;;;;15.43;67.25;98953.20;125466;1096;103044;-76
2021/07/24 04:15:55;;;;;;;20.07;8.53;;;;;;;15.48;67.33;98954.45;125547;1096;102919;-76
2021/07/24 04:18:39;;;;;;;19.20;8.88;;;;;;;15.51;67.21;98945.25;125486;1096;102944;-77
2021/07/24 04:21:10;;;;;;;20.33;9.07;;;;;;;15.53;67.32;98947.80;125463;1096;103064;-77
2021/07/24 04:23:40;;;;;;;19.57;9.57;;;;;;;15.55;67.53;98949.33;125470;1096;103022;-77
2021/07/24 04:26:09;;;;;;;22.83;8.87;;;;;;;15.58;67.43;98949.04;125478;1097;103013;-77
2021/07/24 04:28:37;;;;;;;22.33;10.53;;;;;;;15.62;67.60;98949.61;125545;1096;102914;-77
2021/07/24 04:31:13;;;;;;;20.33;9.30;;;;;;;15.68;67.56;98950.84;125544;1095;102937;-76
2021/07/24 04:33:44;;;;;;;18.13;8.20;;;;;;;15.74;67.60;98950.26;125620;1096;103010;-78
2021/07/24 04:36:14;;;;;;;18.27;7.80;;;;;;;15.80;67.74;98955.03;125515;1096;103036;-78
2021/07/24 04:38:43;;;;;;;18.97;8.13;;;;;;;15.84;67.62;98948.38;125405;1096;103018;-76
2021/07/24 04:41:18;;;;;;;18.37;8.03;;;;;;;15.88;67.73;98951.63;125460;1096;103019;-76
2021/07/24 04:43:46;;;;;;;19.73;8.97;;;;;;;15.90;67.74;98957.70;125424;1096;103037;-75
2021/07/24 04:46:15;;;;;;;18.33;8.50;;;;;;;15.95;67.81;98958.09;125458;1096;103000;-75
2021/07/24 04:48:43;;;;;;;17.87;7.47;;;;;;;16.02;68.07;98948.47;125452;1096;102917;-76
2021/07/24 04:51:16;;;;;;;16.40;7.50;;;;;;;16.09;67.78;98947.87;125408;1097;103472;-76
2021/07/24 04:53:48;;;;;;;19.97;8.23;;;;;;;16.15;67.99;98950.78;125564;1097;103091;-76
2021/07/24 04:56:17;;;;;;;23.85;9.73;;;;;;;16.22;67.94;98948.33;125513;1097;102938;-76
2021/07/24 04:58:46;;;;;;;24.30;9.40;;;;;;;16.27;68.00;98956.78;125602;1095;102938;-75
2021/07/24 05:01:15;;;;;;;19.60;9.33;;;;;;;16.35;68.11;98950.64;125438;1096;103031;-67
2021/07/24 05:03:48;;;;;;;22.40;10.03;;;;;;;16.45;68.04;98958.65;125434;1096;103034;-69
2021/07/24 05:06:18;;;;;;;21.83;10.10;;;;;;;16.52;67.94;98951.65;125609;1096;103024;-68
2021/07/24 05:08:46;;;;;;;23.07;10.03;;;;;;;16.58;68.03;98961.78;125519;1096;103071;-69
2021/07/24 05:11:14;;;;;;;21.03;9.77;;;;;;;16.65;68.18;98956.66;125589;1096;102998;-68
2021/07/24 05:13:44;;;;;;;21.90;10.23;;;;;;;16.72;68.01;98952.34;125577;1095;102921;-69
2021/07/24 05:16:14;;;;;;;24.43;10.43;;;;;;;16.81;68.15;98961.33;125461;1095;103007;-69
2021/07/24 05:18:43;;;;;;;19.43;8.77;;;;;;;16.87;68.00;98955.34;125447;1095;102920;-69
2021/07/24 05:21:19;;;;;;;22.53;9.57;;;;;;;16.94;68.19;98953.70;125503;1096;102942;-70
2021/07/24 05:23:48;;;;;;;22.27;9.83;;;;;;;17.03;68.12;98953.80;125523;1095;102931;-68
2021/07/24 05:26:17;;;;;;;23.00;10.67;;;;;;;17.11;68.32;98952.05;125451;1096;102936;-68
2021/07/24 05:28:48;;;;;;;23.40;10.10;;;;;;;17.22;68.15;98955.45;125524;1095;102919;-66
2021/07/24 05:31:21;;;;;;;21.37;9.53;;;;;;;17.33;68.44;98959.72;125533;1095;103004;-70
2021/07/24 05:33:50;;;;;;;19.93;9.10;;;;;;;17.43;68.20;98955.09;125500;1096;103007;-71
2021/07/24 05:36:18;;;;;;;21.90;9.67;;;;;;;17.54;68.50;98951.27;125469;1094;103019;-67
2021/07/24 05:38:48;;;;;;;22.07;9.70;;;;;;;17.64;68.32;98954.70;125463;1095;103142;-71
2021/07/24 05:41:17;;;;;;;21.80;9.60;;;;;;;17.75;68.33;98960.81;125442;1096;103179;-70
2021/07/24 05:43:47;;;;;;;21.77;9.77;;;;;;;17.83;68.48;98958.99;125480;1095;102922;-71
2021/07/24 05:46:18;;;;;;;20.00;8.67;;;;;;;17.94;68.13;98962.41;125435;1095;103001;-66
2021/07/24 05:48:46;;;;;;;16.87;7.40;;;;;;;18.04;68.59;98955.09;125484;1096;103049;-70
2021/07/24 05:51:14;;;;;;;19.13;7.90;;;;;;;18.13;68.43;98954.12;125536;1096;103059;-69
2021/07/24 05:53:43;;;;;;;19.85;7.40;;;;;;;18.23;68.40;98959.36;125501;1096;103148;-68
2021/07/24 05:56:11;;;;;;;15.63;6.80;;;;;;;18.34;68.43;98958.20;125572;1096;102922;-67
2021/07/24 05:58:40;;;;;;;18.90;7.80;;;;;;;18.45;68.29;98957.89;125464;1096;102919;-74
2021/07/24 06:01:11;;;;;;;15.50;6.97;;;;;;;18.57;68.44;98954.86;125478;1096;102919;-74
2021/07/24 06:03:41;;;;;;;16.50;6.88;;;;;;;18.67;67.90;98955.55;125451;1096;102954;-72
2021/07/24 06:06:10;;;;;;;16.97;6.47;;;;;;;18.77;68.03;98951.86;125458;1097;103090;-71
2021/07/24 06:08:38;;;;;;;15.60;7.13;;;;;;;18.87;67.99;98955.24;125573;1097;103001;-72
2021/07/24 06:11:08;;;;;;;15.03;6.83;;;;;;;18.98;67.90;98957.61;125462;1095;102932;-74
2021/07/24 06:13:36;;;;;;;14.27;6.00;;;;;;;19.09;68.14;98952.89;125516;1094;103036;-70
2021/07/24 06:16:05;;;;;;;13.53;6.07;;;;;;;19.20;68.25;98949.86;125445;1095;103014;-71
2021/07/24 06:18:33;;;;;;;21.53;7.57;;;;;;;19.33;68.15;98942.09;125430;1095;103575;-77
2021/07/24 06:21:02;;;;;;;16.53;6.33;;;;;;;19.51;67.55;98953.69;125486;1097;103508;-80
2021/07/24 06:23:31;;;;;;;16.10;6.27;;;;;;;19.60;67.74;98952.63;125518;1096;103087;-74
2021/07/24 06:26:03;;;;;;;14.87;5.93;;;;;;;19.69;67.72;98945.38;125524;1097;102920;-69
2021/07/24 06:28:31;;;;;;;15.63;6.17;;;;;;;19.76;67.65;98943.67;125450;1095;103004;-77
2021/07/24 06:31:04;;;;;;;12.23;5.47;;;;;;;19.83;67.87;98939.23;125371;1096;103054;-75
2021/07/24 06:33:33;;;;;;;15.07;5.80;;;;;;;19.90;67.38;98944.82;125446;1095;102942;-75
2021/07/24 06:36:01;;;;;;;18.73;6.37;;;;;;;19.98;67.76;98944.77;125447;1096;102934;-75
2021/07/24 06:38:29;;;;;;;20.93;7.60;;;;;;;20.07;67.30;98948.28;125451;1095;102990;-78
2021/07/24 06:40:59;;;;;;;12.90;5.33;;;;;;;20.13;67.36;98939.48;125420;1096;102984;-74
2021/07/24 06:43:27;;;;;;;15.83;5.70;;;;;;;20.22;67.35;98940.27;125444;1095;103098;-77
2021/07/24 06:45:56;;;;;;;13.07;6.00;;;;;;;20.31;67.37;98949.16;125458;1097;102919;-78
2021/07/24 06:48:24;;;;;;;14.33;6.10;;;;;;;20.42;67.18;98937.95;125511;1096;103012;-79
2021/07/24 06:51:10;;;;;;;16.17;6.03;;;;;;;20.52;66.98;98937.71;125437;1095;103035;-76
2021/07/24 06:53:38;;;;;;;12.73;5.23;;;;;;;20.62;67.13;98937.47;125469;1097;103007;-74
2021/07/24 06:56:07;;;;;;;15.53;6.50;;;;;;;20.71;66.89;98944.50;125424;1096;103019;-77
2021/07/24 06:58:36;;;;;;;12.77;5.70;;;;;;;20.82;66.87;98940.55;125420;1096;102948;-78
2021/07/24 07:01:09;;;;;;;12.87;5.57;;;;;;;20.91;66.16;98944.88;125700;1096;103068;-77
2021/07/24 07:03:40;;;;;;;12.10;5.80;;;;;;;21.04;66.40;98941.55;125406;1097;102919;-77
2021/07/24 07:06:08;;;;;;;14.23;5.70;;;;;;;21.18;66.44;98931.82;125497;1096;103099;-77
2021/07/24 07:08:37;;;;;;;15.53;5.97;;;;;;;21.74;66.12;98938.67;125418;1096;103047;-77
2021/07/24 07:11:07;;;;;;;13.10;5.30;;;;;;;22.70;64.82;98932.31;125464;1097;102919;-78
2021/07/24 07:13:36;;;;;;;11.13;5.50;;;;;;;23.63;64.58;98934.09;125450;1097;103435;-77
2021/07/24 07:16:09;;;;;;;13.67;6.00;;;;;;;24.49;64.36;98936.54;125435;1096;102987;-77
2021/07/24 07:18:39;;;;;;;14.37;5.47;;;;;;;25.37;64.74;98930.10;125397;1097;103100;-77
2021/07/24 07:21:10;;;;;;;14.50;5.23;;;;;;;26.17;63.89;98933.69;125444;1096;103148;-76
2021/07/24 07:23:38;;;;;;;11.27;5.20;;;;;;;26.82;63.73;98929.13;125441;1096;103015;-77
2021/07/24 07:26:11;;;;;;;11.00;5.00;;;;;;;27.36;63.22;98934.96;125477;1097;102951;-76
2021/07/24 07:28:39;;;;;;;9.13;4.90;;;;;;;27.79;62.29;98925.92;125552;1095;102914;-77
2021/07/24 07:31:07;;;;;;;12.37;5.37;;;;;;;28.21;62.31;98924.38;125476;1095;102937;-78
2021/07/24 07:33:36;;;;;;;14.13;5.13;;;;;;;28.80;61.86;98926.52;125404;1097;103054;-78
2021/07/24 07:36:06;;;;;;;8.53;4.30;;;;;;;29.49;61.90;98936.95;125501;1097;103186;-79
2021/07/24 07:38:34;;;;;;;7.40;4.30;;;;;;;30.29;61.15;98930.95;125459;1097;103007;-78
2021/07/24 07:41:02;;;;;;;10.90;4.33;;;;;;;30.76;60.15;98931.83;125448;1096;102943;-78
2021/07/24 07:43:31;;;;;;;8.30;4.17;;;;;;;31.30;59.70;98934.09;125448;1096;103032;-78
2021/07/24 07:45:59;;;;;;;10.20;4.30;;;;;;;31.55;59.21;98930.08;125738;1097;102929;-77
2021/07/24 07:48:29;;;;;;;8.00;4.13;;;;;;;31.90;59.10;98946.23;125481;1096;102997;-77
2021/07/24 07:50:57;;;;;;;8.87;4.23;;;;;;;32.32;58.61;98942.09;125456;1097;102948;-77
2021/07/24 07:53:25;;;;;;;10.00;4.10;;;;;;;32.74;57.86;98934.24;125506;1096;102927;-77
2021/07/24 07:55:54;;;;;;;8.33;4.23;;;;;;;32.71;57.00;98941.08;125422;1097;102979;-77
2021/07/24 07:58:24;;;;;;;9.80;4.53;;;;;;;32.57;55.88;98943.44;125394;1096;102922;-78
2021/07/24 08:00:56;;;;;;;10.00;4.80;;;;;;;32.80;56.59;98944.22;125421;1096;103031;-77
2021/07/24 08:03:28;;;;;;;8.97;4.57;;;;;;;33.34;55.84;98942.44;125443;1096;103000;-77
2021/07/24 08:05:57;;;;;;;8.77;4.60;;;;;;;33.43;54.78;98942.80;125475;1096;102981;-76
2021/07/24 08:08:26;;;;;;;7.73;4.40;;;;;;;33.46;54.59;98948.63;125461;1097;102951;-76
2021/07/24 08:10:54;;;;;;;8.07;4.40;;;;;;;33.72;53.89;98943.24;125443;1096;102918;-76
2021/07/24 08:13:27;;;;;;;8.13;4.27;;;;;;;33.66;53.24;98945.16;125486;1096;102948;-77
2021/07/24 08:15:56;;;;;;;;;;;;;;;33.33;52.16;98941.63;125455;1095;102940;-76
2021/07/24 08:18:25;;;;;;;8.00;4.70;;;;;;;33.42;53.06;98944.73;125467;1097;102985;-76
2021/07/24 08:20:53;;;;;;;9.53;4.30;;;;;;;33.60;52.04;98948.16;125433;1096;103082;-75
2021/07/24 08:23:22;;;;;;;11.60;5.10;;;;;;;33.68;51.93;98942.96;125416;1097;103105;-76
2021/07/24 08:25:51;;;;;;;8.67;4.57;;;;;;;33.88;51.44;98946.91;125469;1096;103016;-76
2021/07/24 08:28:19;;;;;;;9.73;4.40;;;;;;;33.93;50.18;98946.95;125463;1096;103100;-75
2021/07/24 08:30:50;;;;;;;8.53;4.17;;;;;;;33.95;50.05;98943.95;125531;1096;102987;-76
2021/07/24 08:33:18;;;;;;;7.60;4.80;;;;;;;33.76;49.67;98949.88;125478;1096;102912;-76
2021/07/24 08:35:46;;;;;;;9.30;4.50;;;;;;;33.64;48.66;98946.50;125456;1095;102916;-76
2021/07/24 08:38:15;;;;;;;8.73;4.60;;;;;;;33.58;48.36;98942.90;125509;1096;103119;-76
2021/07/24 08:40:48;;;;;;;12.53;4.50;;;;;;;33.64;48.53;98940.98;125404;1097;103012;-76
2021/07/24 08:43:18;;;;;;;8.60;4.40;;;;;;;33.69;47.37;98944.63;125469;1096;103161;-77
2021/07/24 08:45:47;;;;;;;9.17;4.80;;;;;;;33.67;47.49;98945.97;125489;1095;103035;-77
2021/07/24 08:48:15;;;;;;;9.65;4.55;;;;;;;33.94;47.13;98947.80;125459;1095;103083;-77
2021/07/24 08:50:45;;;;;;;10.23;5.00;;;;;;;34.46;47.29;98940.54;125443;1095;103010;-75
2021/07/24 08:53:20;;;;;;;9.80;4.83;;;;;;;34.79;46.55;98946.66;125428;1096;103078;-75
2021/07/24 08:55:49;;;;;;;10.57;4.60;;;;;;;34.42;45.27;98943.00;125545;1095;103428;-75
2021/07/24 08:58:19;;;;;;;10.13;4.70;;;;;;;33.98;45.01;98944.22;125477;1097;102909;-77
2021/07/24 09:00:50;;;;;;;9.37;4.97;;;;;;;33.69;44.64;98943.78;125400;1096;103071;-75
2021/07/24 09:03:19;;;;;;;7.50;4.95;;;;;;;33.95;45.02;98949.47;125453;1095;102951;-76
2021/07/24 09:05:51;;;;;;;;;;;;;;;34.40;42.94;98941.59;125463;1097;103069;-76
2021/07/24 09:08:24;;;;;;;11.73;5.37;;;;;;;34.29;43.77;98941.56;125483;1097;103068;-76
2021/07/24 09:10:57;;;;;;;13.60;4.80;;;;;;;34.93;44.17;98935.06;125494;1095;102948;-77
2021/07/24 09:13:27;;;;;;;9.23;5.03;;;;;;;35.74;44.00;98932.48;125431;1097;103153;-75
2021/07/24 09:15:56;;;;;;;7.67;4.73;;;;;;;36.47;43.88;98933.02;125548;1095;103090;-76
2021/07/24 09:18:27;;;;;;;8.40;4.23;;;;;;;36.79;42.78;98921.43;125427;1096;103070;-76
2021/07/24 09:20:56;;;;;;;;;;;;;;;35.95;39.15;98921.34;125544;1096;102961;-76
2021/07/24 09:23:27;;;;;;;10.63;5.43;;;;;;;35.29;41.95;98924.00;125445;1096;102966;-75
2021/07/24 09:25:56;;;;;;;10.07;4.83;;;;;;;35.41;41.54;98913.48;125380;1096;103410;-75
2021/07/24 09:28:26;;;;;;;8.50;4.77;;;;;;;35.90;42.45;98916.64;125425;1096;103097;-76
2021/07/24 09:30:54;;;;;;;10.73;4.40;;;;;;;36.39;41.51;98916.97;125431;1096;102944;-76
2021/07/24 09:33:23;;;;;;;7.67;4.40;;;;;;;36.03;40.24;98918.02;125497;1096;102923;-75
2021/07/24 09:36:02;;;;;;;10.45;5.10;;;;;;;35.28;39.92;98914.05;125390;1097;103164;-76
2021/07/24 09:38:37;;;;;;;14.13;7.60;;;;;;;35.52;40.82;98917.08;125403;1096;103058;-76
2021/07/24 09:41:17;;;;;;;9.80;5.07;;;;;;;36.11;40.72;98909.09;125421;1096;103083;-78
2021/07/24 09:43:46;;;;;;;8.13;4.90;;;;;;;36.63;40.29;98901.34;125536;1097;102955;-76
2021/07/24 09:46:22;;;;;;;9.70;5.10;;;;;;;37.12;40.38;98908.98;125456;1096;102916;-77
2021/07/24 09:48:53;;;;;;;10.67;4.70;;;;;;;37.42;39.46;98905.07;125461;1096;103093;-76
2021/07/24 09:51:35;;;;;;;8.50;4.70;;;;;;;36.72;38.69;98909.84;125396;1097;102993;-77
2021/07/24 09:54:06;;;;;;;10.60;5.10;;;;;;;36.67;39.39;98901.58;125581;1097;103083;-76
2021/07/24 09:56:45;;;;;;;7.43;4.23;;;;;;;36.84;38.48;98897.57;125508;1095;102943;-77
2021/07/24 09:59:18;;;;;;;10.73;5.13;;;;;;;35.84;37.77;98906.73;125552;1096;102972;-80
2021/07/24 10:02:03;;;;;;;7.13;4.70;;;;;;;35.58;38.05;98899.36;125466;1096;102904;-80
2021/07/24 10:04:40;;;;;;;8.77;4.73;;;;;;;35.10;37.23;98896.94;125564;1097;102938;-75
2021/07/24 10:07:32;;;;;;;7.87;4.93;;;;;;;34.95;37.61;98894.98;125436;1095;102948;-76
2021/07/24 10:10:01;;;;;;;11.10;5.43;;;;;;;34.94;37.56;98898.86;125426;1096;103001;-84
2021/07/24 10:12:29;;;;;;;8.93;4.97;;;;;;;34.58;37.13;98894.18;125677;1095;102954;-71
2021/07/24 10:15:00;;;;;;;10.63;5.20;;;;;;;34.03;36.77;98895.69;125462;1096;103419;-73
2021/07/24 10:17:28;;;;;;;9.23;5.30;;;;;;;33.55;36.02;98900.16;125480;1096;103182;-80
2021/07/24 10:19:57;;;;;;;10.47;5.43;;;;;;;32.94;36.43;98892.30;125410;1096;102955;-80
2021/07/24 10:22:27;;;;;;;8.33;4.70;;;;;;;32.65;36.03;98898.07;125464;1095;102942;-77
2021/07/24 10:24:55;;;;;;;9.43;5.37;;;;;;;32.14;36.17;98898.37;125766;1096;103094;-71
2021/07/24 10:27:30;;;;;;;8.47;4.67;;;;;;;31.92;36.13;98886.30;125415;1096;102997;-77
2021/07/24 10:30:05;;;;;;;15.27;5.80;;;;;;;31.91;35.95;98900.33;125456;1095;103100;-70
2021/07/24 10:32:37;;;;;;;12.23;5.77;;;;;;;31.82;36.08;98891.67;125380;1095;102940;-71
2021/07/24 10:35:09;;;;;;;11.03;5.45;;;;;;;31.76;35.96;98889.97;125434;1095;102980;-81
2021/07/24 10:37:49;;;;;;;12.45;5.70;;;;;;;31.46;36.10;98893.92;125482;1096;102999;-82
2021/07/24 10:40:20;;;;;;;12.93;5.80;;;;;;;31.19;35.41;98894.66;125409;1096;103623;-76
2021/07/24 10:42:51;;;;;;;;;;;;;;;30.96;35.90;98885.50;125460;1097;103072;-78
2021/07/24 10:45:32;;;;;;;10.37;5.27;;;;;;;30.91;35.74;98884.58;125533;1096;103033;-73
2021/07/24 10:48:15;;;;;;;11.40;5.80;;;;;;;30.92;35.68;98883.49;125467;1097;102916;-73
2021/07/24 10:50:49;;;;;;;11.87;5.90;;;;;;;30.89;35.73;98885.66;125695;1096;103013;-75
2021/07/24 10:53:18;;;;;;;11.30;5.63;;;;;;;30.72;35.35;98884.84;125451;1095;102941;-75
2021/07/24 10:55:50;;;;;;;10.30;5.40;;;;;;;30.53;35.51;98884.21;125427;1097;102942;-74
2021/07/24 10:58:25;;;;;;;13.00;5.80;;;;;;;30.03;35.19;98885.73;125510;1096;103019;-75
2021/07/24 11:01:02;;;;;;;13.33;5.87;;;;;;;29.88;35.67;98875.27;125529;1096;102940;-75
2021/07/24 11:03:46;;;;;;;18.57;6.87;;;;;;;29.88;35.80;98876.12;125493;1096;103034;-70
2021/07/24 11:06:30;;;;;;;10.37;5.37;;;;;;;29.80;35.75;98873.75;125404;1095;102998;-75
2021/07/24 11:09:01;;;;;;;12.53;5.67;;;;;;;29.66;35.95;98864.98;125433;1095;102969;-74
2021/07/24 11:11:43;;;;;;;13.65;6.20;;;;;;;29.63;36.06;98863.53;127067;1096;102913;-72
2021/07/24 11:14:49;;;;;;;12.67;5.37;;;;;;;29.61;35.51;98865.69;125452;1096;102922;-70
2021/07/24 11:17:18;;;;;;;11.37;5.57;;;;;;;29.41;35.66;98863.34;125536;1096;103077;-71
2021/07/24 11:19:50;;;;;;;11.00;6.20;;;;;;;29.33;35.26;98869.18;125499;1097;103039;-68
2021/07/24 11:22:30;;;;;;;9.40;4.97;;;;;;;29.22;35.27;98866.20;125497;1096;103032;-71
2021/07/24 11:24:58;;;;;;;10.20;5.60;;;;;;;29.06;35.27;98862.28;125425;1096;103016;-72
2021/07/24 11:27:30;;;;;;;17.00;6.60;;;;;;;29.05;36.01;98860.62;125428;1096;103037;-70
2021/07/24 11:30:05;;;;;;;16.00;6.80;;;;;;;29.15;35.77;98850.95;126383;1097;102921;-71